METAR - Ísland

Uppfært síðast 21.09.2020 - kl. 12:39

SIGMET síðustu 6 klst.

Engin SIGMET skeyti bárust síðustu 6 klst.

METAR síðustu 3 klst

Flugv.TímiSkeyti
BIAR2020-09-21 12.00METAR BIAR 211200Z 36005KT 330V030 9999 FEW010 BKN040 03/00 Q0996
BIAR2020-09-21 11.00METAR BIAR 211100Z 32005KT 280V010 9999 FEW009 SCT011 BKN054 03/01 Q0996
BIAR2020-09-21 10.00METAR BIAR 211000Z 35003KT 320V020 9999 FEW008 BKN054 02/00 Q0996
BIBD2020-09-21 12.00METAR BIBD 211200Z 05007KT 9999 FEW012 SCT018 BKN025 04/02 Q0992
BIBD2020-09-21 11.00METAR BIBD 211100Z 16003KT 9000 SHSNRA FEW006 SCT012 OVC015 02/00 Q0993
BIBD2020-09-21 10.00METAR BIBD 211000Z 14009KT 9999 SHSNRA FEW008 SCT015 BKN020 04/00 Q0993
BIEG2020-09-21 12.00METAR BIEG 211200Z 25012KT 9999 SCT054 08/M04 Q0996
BIEG2020-09-21 11.00METAR BIEG 211100Z 23011KT 9999 FEW045 08/M03 Q0996
BIEG2020-09-21 10.00METAR BIEG 211000Z 22010KT 9999 FEW045 06/M01 Q0996
BIGR2020-09-21 12.00METAR BIGR 211200Z 35004KT 9999 FEW016 SCT052 03/M01 Q0996
BIGR2020-09-21 11.00METAR BIGR 211100Z 32005KT 9999 BKN014 02/00 Q0996
BIGR2020-09-21 10.00METAR BIGR 211000Z 33005KT 9999 -SN OVC014 01/// Q0996
BIHN2020-09-21 11.30METAR BIHN 211130Z 23009KT 9999 FEW045 09/01 Q0997
BIHN2020-09-21 11.00METAR BIHN 211100Z 19006KT 9999 FEW045 09/M01 Q0997
BIHN2020-09-21 10.00METAR BIHN 211000Z VRB03KT 9999 FEW045 08/M04 Q0997
BIHU2020-09-21 10.00METAR BIHU 211000Z 13003KT 9999 BR VCSH FEW005 OVC018 02/01 Q0996
BIIS2020-09-21 12.00METAR BIIS 211200Z VRB04KT 9999 -RA FEW020 BKN030 02/00 Q0994 RMK ARNARNES 160 11G16KT
BIIS2020-09-21 10.49METAR BIIS 211049Z VRB08KT 9999 VCSH BKN020 03/M01 Q0994
BIIS2020-09-21 10.00METAR BIIS 211000Z VRB10G20KT 9999 -RA SCT025 OVC030 03/M01 Q0994
BIKF2020-09-21 12.30METAR BIKF 211230Z 24027G38KT 9999 -SHRA FEW021CB BKN037 06/01 Q0995
BIKF2020-09-21 12.00METAR BIKF 211200Z 23024KT 9999 VCSH FEW021CB BKN042 06/M00 Q0995
BIKF2020-09-21 11.30METAR BIKF 211130Z 22023KT 9999 VCSH FEW020CB BKN041 07/01 Q0995
BIKF2020-09-21 11.00METAR BIKF 211100Z 23024KT 9999 VCSH FEW020CB SCT045 06/M01 Q0995
BIKF2020-09-21 10.30METAR BIKF 211030Z 23022KT 9999 VCSH FEW020CB BKN041 06/M01 Q0995
BIKF2020-09-21 10.00METAR BIKF 211000Z 23023KT 9999 VCSH FEW020CB BKN041 05/M00 Q0995
BIRK2020-09-21 12.00METAR BIRK 211200Z 21021KT 9999 FEW030 SCT060 07/01 Q0995
BIRK2020-09-21 11.00METAR BIRK 211100Z 21017KT 9999 VCSH FEW026 SCT037 06/M00 Q0995 RESHRA
BIRK2020-09-21 10.00METAR BIRK 211000Z 19011KT 160V220 9999 FEW030 SCT040 06/01 Q0996
BITN2020-09-21 12.00METAR BITN 211200Z 27011KT 9999 FEW020 BKN025 03/M01 Q0996
BITN2020-09-21 11.00METAR BITN 211100Z 27011KT 9999 FEW015 BKN020 03/M01 Q0996
BITN2020-09-21 10.00METAR BITN 211000Z 25010KT 9999 FEW015 BKN025 03/M01 Q0996
BIVM2020-09-21 12.00METAR BIVM 211200Z 26017KT 9999 FEW023 07/02 Q0998
BIVM2020-09-21 11.00METAR BIVM 211100Z 27025G37KT 5000 RASN FEW016 SCT030 04/01 Q0998
BIVM2020-09-21 10.00METAR BIVM 211000Z 27010KT 9999 SCT016 05/03 Q0997 RERA
BIVO2020-09-21 12.00METAR BIVO 211200Z 06011KT 9999 SCT040 05/01 Q0996
BIVO2020-09-21 11.00METAR BIVO 211100Z 22006KT 9999 SCT040 06/M01 Q0996

Textaspár eru skrifaðar af vakthafandi veðurfræðingi á Veðurstofu Íslands.




Aðrir tengdir vefir



Þetta vefsvæði byggir á Eplica